Terminal Aerodrome Forecast
Issued by NWS Tulsa, OK

Home | Current Version | Previous Version | Text Only | Print | Product List | Glossary On
Versions: 1 2 3 4 5 6 7 8 9 10 11 12 13 14 15 16
000
FTUS44 KTSA 161100 RRA
TAFFSM
TAF
KFSM 161145Z 1612/1712 00000KT 5SM BR SCT003
      TEMPO 1612/1614 2SM BR BKN003
     FM161500 05004KT P6SM BKN025
     FM161900 06004KT P6SM BKN035
     FM170000 07003KT P6SM SCT250
     FM170800 07003KT 4SM BR SCT010=

USA.gov is the U.S. government's official web portal to all federal, state and local government web resources and services.